createdAt,value
2018-06-09T00:00:17.007Z,13.88
2018-06-09T00:02:46.233Z,14.02
2018-06-09T00:05:15.460Z,13.95
2018-06-09T00:07:44.677Z,13.89
2018-06-09T00:10:13.881Z,13.84
2018-06-09T00:12:43.133Z,13.82
2018-06-09T00:15:12.287Z,13.81
2018-06-09T00:17:41.494Z,13.78
2018-06-09T00:20:10.720Z,13.78
2018-06-09T00:22:39.922Z,13.71
2018-06-09T00:25:09.163Z,13.72
2018-06-09T00:27:38.461Z,13.68
2018-06-09T00:30:07.811Z,13.69
2018-06-09T00:32:37.017Z,13.70
2018-06-09T00:35:06.007Z,13.66
2018-06-09T00:37:36.006Z,13.62
2018-06-09T00:40:05.247Z,13.64
2018-06-09T00:42:34.502Z,13.65
2018-06-09T00:45:03.747Z,13.67
2018-06-09T00:47:33.112Z,13.63
2018-06-09T00:50:02.327Z,13.63
2018-06-09T00:52:31.524Z,13.80
2018-06-09T00:55:00.814Z,13.83
2018-06-09T00:57:30.029Z,13.68
2018-06-09T00:59:59.248Z,13.70
2018-06-09T01:02:28.475Z,13.80
2018-06-09T01:04:57.694Z,13.76
2018-06-09T01:07:26.677Z,13.68
2018-06-09T01:09:55.897Z,13.64
2018-06-09T01:12:25.116Z,13.66
2018-06-09T01:14:54.366Z,13.73
2018-06-09T01:17:23.605Z,14.02
2018-06-09T01:19:52.883Z,14.03
2018-06-09T01:22:22.094Z,13.95
2018-06-09T01:24:51.312Z,14.03
2018-06-09T01:27:20.530Z,13.97
2018-06-09T01:29:49.742Z,14.16
2018-06-09T01:32:18.974Z,14.01
2018-06-09T01:34:48.207Z,13.84
2018-06-09T01:37:17.414Z,13.83
2018-06-09T01:39:46.650Z,13.88
2018-06-09T01:42:15.877Z,13.99
2018-06-09T01:44:45.135Z,13.82
2018-06-09T01:47:45.410Z,13.84
2018-06-09T01:50:14.624Z,14.20
2018-06-09T01:52:44.382Z,14.20
2018-06-09T01:55:13.602Z,14.12
2018-06-09T01:57:42.814Z,14.01
2018-06-09T02:00:12.029Z,13.63
2018-06-09T02:02:41.245Z,13.64
2018-06-09T02:05:10.454Z,13.43
2018-06-09T02:07:39.675Z,13.33
2018-06-09T02:10:08.902Z,13.29
2018-06-09T02:12:38.180Z,13.27
2018-06-09T02:15:07.394Z,13.24
2018-06-09T02:17:36.711Z,13.25
2018-06-09T02:20:06.102Z,13.17
2018-06-09T02:22:35.302Z,13.11
2018-06-09T02:25:04.532Z,13.07
2018-06-09T02:27:33.758Z,13.00
2018-06-09T02:30:02.984Z,13.00
2018-06-09T02:32:32.191Z,13.09
2018-06-09T02:35:01.389Z,13.21
2018-06-09T02:37:30.614Z,13.27
2018-06-09T02:39:59.824Z,13.22
2018-06-09T02:42:29.051Z,13.18
2018-06-09T02:44:58.288Z,12.91
2018-06-09T02:47:27.519Z,12.80
2018-06-09T02:49:56.753Z,12.77
2018-06-09T02:52:26.044Z,12.81
2018-06-09T02:54:55.276Z,12.76
2018-06-09T02:57:24.478Z,12.80
2018-06-09T02:59:53.707Z,12.71
2018-06-09T03:02:23.174Z,12.97
2018-06-09T03:04:52.398Z,12.97
2018-06-09T03:07:21.646Z,12.91
2018-06-09T03:09:50.862Z,12.88
2018-06-09T03:12:20.093Z,12.69
2018-06-09T03:14:49.291Z,12.62
2018-06-09T03:17:18.487Z,12.56
2018-06-09T03:19:47.987Z,12.82
2018-06-09T03:22:17.189Z,12.93
2018-06-09T03:24:46.418Z,12.79
2018-06-09T03:27:15.643Z,13.03
2018-06-09T03:29:44.905Z,13.11
2018-06-09T03:32:14.135Z,13.15
2018-06-09T03:34:43.335Z,13.11
2018-06-09T03:37:12.564Z,13.16
2018-06-09T03:39:41.787Z,13.18
2018-06-09T03:42:11.007Z,13.15
2018-06-09T03:44:40.210Z,13.07
2018-06-09T03:47:09.431Z,13.05
2018-06-09T03:49:38.631Z,13.08
2018-06-09T03:52:07.850Z,13.12
2018-06-09T03:54:37.051Z,13.07
2018-06-09T03:57:06.283Z,13.09
2018-06-09T03:59:35.503Z,13.09
2018-06-09T04:02:05.068Z,13.09
2018-06-09T04:04:34.290Z,13.13
2018-06-09T04:07:03.530Z,13.20
2018-06-09T04:09:32.755Z,13.32
2018-06-09T04:12:01.967Z,13.30
2018-06-09T04:14:31.174Z,13.30
2018-06-09T04:17:00.430Z,13.40
2018-06-09T04:19:29.667Z,13.47
2018-06-09T04:21:58.868Z,13.55
2018-06-09T04:24:28.089Z,13.56
2018-06-09T04:26:57.320Z,13.53
2018-06-09T04:29:26.547Z,13.60
2018-06-09T04:31:55.780Z,13.70
2018-06-09T04:34:24.981Z,13.88
2018-06-09T04:36:54.193Z,13.94
2018-06-09T04:39:23.422Z,13.99
2018-06-09T04:41:52.663Z,14.12
2018-06-09T04:44:21.850Z,14.29
2018-06-09T04:46:51.084Z,14.27
2018-06-09T04:49:20.294Z,14.28
2018-06-09T04:51:49.522Z,14.46
2018-06-09T04:54:18.729Z,14.71
2018-06-09T04:56:47.943Z,15.13
2018-06-09T04:59:17.197Z,15.32
2018-06-09T05:01:46.411Z,15.55
2018-06-09T05:04:15.614Z,15.65
2018-06-09T05:06:44.835Z,15.81
2018-06-09T05:09:14.063Z,16.88
2018-06-09T05:11:43.279Z,18.73
2018-06-09T05:14:12.877Z,18.16
2018-06-09T05:16:42.079Z,17.11
2018-06-09T05:19:11.284Z,16.71
2018-06-09T05:21:40.502Z,16.51
2018-06-09T05:24:09.722Z,16.43
2018-06-09T05:26:38.950Z,16.49
2018-06-09T05:29:08.173Z,16.55
2018-06-09T05:31:37.383Z,16.48
2018-06-09T05:34:06.663Z,16.00
2018-06-09T05:36:35.924Z,16.07
2018-06-09T05:39:07.803Z,16.81
2018-06-09T05:41:37.069Z,19.67
2018-06-09T05:44:07.307Z,22.55
2018-06-09T05:46:36.511Z,23.82
2018-06-09T05:49:05.719Z,25.93
2018-06-09T05:51:35.022Z,26.68
2018-06-09T05:54:04.279Z,26.39
2018-06-09T05:56:33.518Z,26.83
2018-06-09T05:59:02.742Z,25.06
2018-06-09T06:01:32.302Z,26.42
2018-06-09T06:04:01.610Z,28.94
2018-06-09T06:06:30.810Z,28.35
2018-06-09T06:08:59.834Z,28.62
2018-06-09T06:11:29.059Z,29.61
2018-06-09T06:13:58.298Z,28.15
2018-06-09T06:16:27.517Z,28.31
2018-06-09T06:18:56.716Z,29.83
2018-06-09T06:21:25.941Z,30.43
2018-06-09T06:23:55.147Z,28.83
2018-06-09T06:26:24.370Z,29.42
2018-06-09T06:28:53.599Z,30.83
2018-06-09T06:31:22.830Z,30.54
2018-06-09T06:33:52.055Z,30.95
2018-06-09T06:36:21.269Z,32.51
2018-06-09T06:38:50.487Z,34.02
2018-06-09T06:41:19.711Z,34.70
2018-06-09T06:43:48.938Z,33.45
2018-06-09T06:46:18.163Z,32.52
2018-06-09T06:48:47.370Z,34.32
2018-06-09T06:51:16.587Z,31.95
2018-06-09T06:53:45.790Z,31.05
2018-06-09T06:56:15.025Z,27.92
2018-06-09T06:58:44.239Z,29.38
2018-06-09T07:01:13.605Z,29.93
2018-06-09T07:03:42.835Z,33.06
2018-06-09T07:06:12.069Z,32.68
2018-06-09T07:08:41.502Z,31.50
2018-06-09T07:11:10.720Z,32.11
2018-06-09T07:13:39.934Z,31.67
2018-06-09T07:16:09.154Z,31.48
2018-06-09T07:18:38.383Z,33.48
2018-06-09T07:21:07.263Z,33.69
2018-06-09T07:23:36.487Z,32.27
2018-06-09T07:26:06.091Z,32.30
2018-06-09T07:28:35.305Z,31.17
2018-06-09T07:31:04.518Z,30.17
2018-06-09T07:33:33.728Z,29.84
2018-06-09T07:36:02.946Z,28.84
2018-06-09T07:38:32.142Z,26.82
2018-06-09T07:41:01.369Z,29.80
2018-06-09T07:43:30.575Z,30.26
2018-06-09T07:45:59.780Z,28.89
2018-06-09T07:48:29.021Z,28.64
2018-06-09T07:50:58.223Z,28.18
2018-06-09T07:53:27.419Z,27.27
2018-06-09T07:55:56.691Z,26.26
2018-06-09T07:58:25.908Z,24.45
2018-06-09T08:00:55.105Z,23.31
2018-06-09T08:03:24.318Z,25.14
2018-06-09T08:05:53.522Z,25.46
2018-06-09T08:08:22.732Z,25.01
2018-06-09T08:10:51.939Z,24.82
2018-06-09T08:13:21.135Z,25.38
2018-06-09T08:15:50.335Z,25.24
2018-06-09T08:18:19.528Z,26.95
2018-06-09T08:20:48.766Z,25.69
2018-06-09T08:23:17.982Z,25.51
2018-06-09T08:25:47.188Z,27.28
2018-06-09T08:28:16.469Z,28.44
2018-06-09T08:30:45.675Z,28.49
2018-06-09T08:33:14.874Z,27.64
2018-06-09T08:35:44.091Z,27.50
2018-06-09T08:38:13.338Z,28.43
2018-06-09T08:40:42.315Z,25.58
2018-06-09T08:43:11.540Z,24.82
2018-06-09T08:45:40.784Z,24.50
2018-06-09T08:48:10.031Z,24.55
2018-06-09T08:50:39.261Z,24.11
2018-06-09T08:53:08.485Z,23.78
2018-06-09T08:55:38.047Z,23.97
2018-06-09T08:58:07.264Z,23.13
2018-06-09T09:00:36.514Z,22.80
2018-06-09T09:03:06.079Z,22.67
2018-06-09T09:05:35.263Z,22.36
2018-06-09T09:08:04.594Z,22.47
2018-06-09T09:10:33.831Z,22.61
2018-06-09T09:13:03.122Z,22.90
2018-06-09T09:15:32.374Z,23.00
2018-06-09T09:18:01.470Z,23.08
2018-06-09T09:20:30.678Z,22.80
2018-06-09T09:22:59.894Z,23.21
2018-06-09T09:25:29.115Z,22.95
2018-06-09T09:27:58.331Z,23.07
2018-06-09T09:30:27.567Z,23.17
2018-06-09T09:32:56.801Z,22.24
2018-06-09T09:35:26.024Z,22.28
2018-06-09T09:37:55.224Z,22.09
2018-06-09T09:40:24.490Z,22.30
2018-06-09T09:42:53.724Z,21.95
2018-06-09T09:45:22.985Z,21.82
2018-06-09T09:47:52.184Z,22.15
2018-06-09T09:50:21.462Z,22.08
2018-06-09T09:52:50.708Z,22.64
2018-06-09T09:55:19.962Z,22.76
2018-06-09T09:58:03.118Z,23.09
2018-06-09T10:00:37.368Z,23.58
2018-06-09T10:03:07.006Z,23.76
2018-06-09T10:05:36.246Z,24.16
2018-06-09T10:08:05.464Z,23.88
2018-06-09T10:10:34.694Z,24.01
2018-06-09T10:13:03.934Z,24.04
2018-06-09T10:15:33.223Z,23.87
2018-06-09T10:18:02.470Z,24.66
2018-06-09T10:20:31.719Z,24.80
2018-06-09T10:23:00.958Z,25.07
2018-06-09T10:25:30.183Z,25.45
2018-06-09T10:27:59.453Z,25.96
2018-06-09T10:30:28.647Z,26.54
2018-06-09T10:32:57.899Z,26.33
2018-06-09T10:35:27.119Z,26.64
2018-06-09T10:37:56.361Z,25.95
2018-06-09T10:40:25.596Z,25.69
2018-06-09T10:42:54.814Z,25.47
2018-06-09T10:45:24.067Z,25.38
2018-06-09T10:47:53.311Z,24.96
2018-06-09T10:50:22.581Z,25.34
2018-06-09T10:52:51.796Z,26.25
2018-06-09T10:55:21.041Z,26.32
2018-06-09T10:57:50.276Z,27.08
2018-06-09T11:00:19.495Z,27.89
2018-06-09T11:02:48.742Z,26.98
2018-06-09T11:05:17.991Z,26.86
2018-06-09T11:07:47.304Z,25.98
2018-06-09T11:10:16.609Z,25.94
2018-06-09T11:12:45.849Z,25.71
2018-06-09T11:15:14.886Z,26.30
2018-06-09T11:17:44.092Z,26.10
2018-06-09T11:20:13.317Z,25.30
2018-06-09T11:22:42.554Z,25.70
2018-06-09T11:25:11.527Z,26.60
2018-06-09T11:27:40.807Z,27.45
2018-06-09T11:30:10.007Z,27.98
2018-06-09T11:32:39.254Z,28.30
2018-06-09T11:35:08.255Z,28.65
2018-06-09T11:37:37.504Z,28.36
2018-06-09T11:40:06.724Z,27.88
2018-06-09T11:42:35.938Z,27.03
2018-06-09T11:45:05.265Z,27.03
2018-06-09T11:47:34.458Z,26.27
2018-06-09T11:50:03.703Z,26.91
2018-06-09T11:52:32.919Z,28.28
2018-06-09T11:55:02.107Z,28.33
2018-06-09T11:57:31.415Z,28.22
2018-06-09T12:00:00.617Z,28.56
2018-06-09T12:02:29.829Z,28.53
2018-06-09T12:04:59.118Z,29.93
2018-06-09T12:07:28.502Z,32.27
2018-06-09T12:09:57.806Z,30.13
2018-06-09T12:12:27.034Z,30.49
2018-06-09T12:14:56.268Z,33.93
2018-06-09T12:17:25.490Z,34.96
2018-06-09T12:19:54.718Z,33.05
2018-06-09T12:22:23.942Z,31.67
2018-06-09T12:24:53.160Z,29.60
2018-06-09T12:27:22.376Z,30.28
2018-06-09T12:29:51.598Z,29.79
2018-06-09T12:32:20.903Z,29.66
2018-06-09T12:34:50.148Z,28.20
2018-06-09T12:37:19.382Z,27.94
2018-06-09T12:39:48.686Z,26.91
2018-06-09T12:42:18.006Z,26.72
2018-06-09T12:44:47.243Z,27.36
2018-06-09T12:47:16.573Z,26.16
2018-06-09T12:49:45.793Z,26.43
2018-06-09T12:52:15.002Z,27.10
2018-06-09T12:54:44.283Z,26.16
2018-06-09T12:57:13.490Z,26.86
2018-06-09T12:59:42.723Z,27.02
2018-06-09T13:02:11.927Z,26.97
2018-06-09T13:04:41.143Z,26.46
2018-06-09T13:07:10.351Z,27.25
2018-06-09T13:09:39.556Z,27.07
2018-06-09T13:12:08.752Z,27.11
2018-06-09T13:14:38.779Z,27.30
2018-06-09T13:17:08.046Z,27.40
2018-06-09T13:19:37.278Z,27.76
2018-06-09T13:22:06.503Z,28.23
2018-06-09T13:24:35.715Z,28.41
2018-06-09T13:27:05.158Z,28.05
2018-06-09T13:29:34.387Z,27.83
2018-06-09T13:32:03.603Z,27.73
2018-06-09T13:36:56.247Z,27.47
2018-06-09T13:39:25.526Z,27.36
2018-06-09T13:41:54.734Z,27.34
2018-06-09T13:44:25.003Z,27.19
2018-06-09T13:46:54.241Z,27.46
2018-06-09T13:49:23.414Z,27.76
2018-06-09T13:51:52.628Z,27.28
2018-06-09T13:54:22.155Z,27.26
2018-06-09T13:56:51.337Z,27.72
2018-06-09T13:59:20.540Z,28.18
2018-06-09T14:01:49.763Z,27.98
2018-06-09T14:04:18.991Z,27.74
2018-06-09T14:06:48.250Z,27.89
2018-06-09T14:09:17.494Z,27.77
2018-06-09T14:11:46.710Z,28.20
2018-06-09T14:14:15.927Z,28.24
2018-06-09T14:16:45.164Z,28.09
2018-06-09T14:19:14.668Z,28.35
2018-06-09T14:21:43.629Z,28.55
2018-06-09T14:24:12.847Z,28.08
2018-06-09T14:26:42.036Z,28.07
2018-06-09T14:29:11.087Z,27.90
2018-06-09T14:31:40.922Z,27.86
2018-06-09T14:34:10.146Z,27.72
2018-06-09T14:36:39.346Z,27.64
2018-06-09T14:39:08.786Z,27.72
2018-06-09T14:41:37.986Z,27.90
2018-06-09T14:44:07.223Z,27.97
2018-06-09T14:46:36.429Z,27.04
2018-06-09T14:49:05.748Z,27.14
2018-06-09T14:51:34.987Z,26.61
2018-06-09T14:54:04.174Z,27.26
2018-06-09T14:56:33.390Z,27.55
2018-06-09T14:59:02.582Z,27.10
2018-06-09T15:01:31.790Z,27.40
2018-06-09T15:04:00.990Z,27.50
2018-06-09T15:06:30.308Z,27.12
2018-06-09T15:08:59.514Z,27.28
2018-06-09T15:11:28.754Z,26.61
2018-06-09T15:13:57.933Z,27.10
2018-06-09T15:16:27.135Z,27.47
2018-06-09T15:18:56.346Z,27.57
2018-06-09T15:21:25.579Z,28.28
2018-06-09T15:23:54.796Z,28.13
2018-06-09T15:26:24.078Z,28.55
2018-06-09T15:28:53.357Z,28.48
2018-06-09T15:31:22.570Z,27.78
2018-06-09T15:33:51.791Z,28.18
2018-06-09T15:36:21.045Z,28.51
2018-06-09T15:38:50.235Z,28.14
2018-06-09T15:41:19.450Z,28.40
2018-06-09T15:43:48.402Z,28.64
2018-06-09T15:46:17.685Z,28.48
2018-06-09T15:48:46.893Z,28.14
2018-06-09T15:51:16.192Z,27.93
2018-06-09T15:53:45.391Z,28.14
2018-06-09T15:56:14.603Z,28.18
2018-06-09T15:58:43.812Z,27.98
2018-06-09T16:01:13.042Z,27.75
2018-06-09T16:03:42.266Z,27.94
2018-06-09T16:06:11.492Z,27.80
2018-06-09T16:08:40.701Z,28.08
2018-06-09T16:11:09.919Z,27.76
2018-06-09T16:13:39.111Z,28.16
2018-06-09T16:16:08.307Z,28.08
2018-06-09T16:18:37.530Z,28.73
2018-06-09T16:21:06.758Z,29.04
2018-06-09T16:26:08.634Z,28.06
2018-06-09T16:28:37.841Z,27.45
2018-06-09T16:31:07.108Z,27.78
2018-06-09T16:33:36.456Z,27.90
2018-06-09T16:36:05.963Z,27.79
2018-06-09T16:38:35.196Z,27.65
2018-06-09T16:41:04.374Z,27.45
2018-06-09T16:43:33.584Z,27.70
2018-06-09T16:46:02.810Z,27.28
2018-06-09T16:48:32.033Z,26.76
2018-06-09T16:51:01.238Z,26.64
2018-06-09T16:53:30.442Z,26.28
2018-06-09T16:55:59.668Z,26.02
2018-06-09T16:58:28.894Z,26.42
2018-06-09T17:00:58.114Z,26.77
2018-06-09T17:03:27.342Z,26.82
2018-06-09T17:05:56.634Z,26.73
2018-06-09T17:08:25.843Z,26.37
2018-06-09T17:10:55.050Z,25.49
2018-06-09T17:13:24.287Z,24.88
2018-06-09T17:15:53.496Z,24.94
2018-06-09T17:18:22.585Z,24.79
2018-06-09T17:20:51.806Z,24.45
2018-06-09T17:23:20.772Z,24.06
2018-06-09T17:25:50.043Z,23.83
2018-06-09T17:28:19.291Z,23.80
2018-06-09T17:30:48.571Z,24.01
2018-06-09T17:33:18.687Z,24.17
2018-06-09T17:35:47.923Z,24.57
2018-06-09T17:38:17.147Z,24.73
2018-06-09T17:40:46.420Z,24.56
2018-06-09T17:43:15.617Z,24.57
2018-06-09T17:45:46.124Z,24.03
2018-06-09T17:48:15.368Z,23.72
2018-06-09T17:50:44.582Z,23.42
2018-06-09T17:53:13.778Z,23.24
2018-06-09T17:55:43.055Z,23.28
2018-06-09T17:58:12.339Z,23.08
2018-06-09T18:00:41.551Z,22.71
2018-06-09T18:03:10.855Z,22.54
2018-06-09T18:05:40.076Z,22.64
2018-06-09T18:08:09.307Z,22.39
2018-06-09T18:10:38.530Z,22.18
2018-06-09T18:13:07.750Z,22.04
2018-06-09T18:15:36.968Z,21.86
2018-06-09T18:18:06.208Z,21.77
2018-06-09T18:20:35.427Z,21.66
2018-06-09T18:23:04.765Z,21.65
2018-06-09T18:25:33.897Z,21.61
2018-06-09T18:28:08.672Z,21.60
2018-06-09T18:30:37.872Z,21.58
2018-06-09T18:33:07.077Z,21.56
2018-06-09T18:35:36.291Z,21.40
2018-06-09T18:38:05.515Z,21.20
2018-06-09T18:40:34.734Z,21.20
2018-06-09T18:43:03.963Z,21.44
2018-06-09T18:45:33.195Z,20.91
2018-06-09T18:48:02.408Z,20.65
2018-06-09T18:50:31.626Z,20.51
2018-06-09T18:53:00.838Z,20.44
2018-06-09T18:55:30.051Z,20.42
2018-06-09T18:57:59.322Z,20.41
2018-06-09T19:00:28.627Z,20.39
2018-06-09T19:02:57.850Z,20.34
2018-06-09T19:05:27.069Z,20.37
2018-06-09T19:07:56.303Z,20.26
2018-06-09T19:33:58.938Z,20.23
2018-06-09T19:36:28.287Z,20.19
2018-06-09T19:38:57.568Z,20.52
2018-06-09T19:41:26.781Z,20.68
2018-06-09T19:43:56.035Z,20.73
2018-06-09T19:46:25.240Z,20.97
2018-06-09T19:48:54.441Z,20.91
2018-06-09T19:51:23.684Z,21.00
2018-06-09T19:53:52.989Z,20.96
2018-06-09T19:56:22.201Z,20.76
2018-06-09T19:58:51.429Z,20.66
2018-06-09T20:01:20.402Z,20.72
2018-06-09T20:03:49.608Z,20.71
2018-06-09T20:06:18.892Z,20.52
2018-06-09T20:08:48.112Z,20.57
2018-06-09T20:11:17.323Z,20.40
2018-06-09T20:13:46.518Z,20.66
2018-06-09T20:16:15.745Z,20.77
2018-06-09T20:18:44.978Z,20.62
2018-06-09T20:21:14.261Z,20.38
2018-06-09T20:23:43.519Z,20.15
2018-06-09T20:26:12.799Z,19.90
2018-06-09T20:28:42.024Z,19.73
2018-06-09T20:31:11.246Z,19.70
2018-06-09T20:33:40.527Z,19.77
2018-06-09T20:36:09.782Z,19.60
2018-06-09T20:38:40.221Z,19.56
2018-06-09T20:41:09.194Z,19.25
2018-06-09T20:43:38.434Z,19.28
2018-06-09T20:46:07.770Z,19.28
2018-06-09T20:48:36.946Z,19.20
2018-06-09T20:51:06.287Z,19.24
2018-06-09T20:53:35.495Z,19.19
2018-06-09T20:56:04.738Z,19.11
2018-06-09T20:58:39.049Z,18.94
2018-06-09T21:01:08.602Z,18.67
2018-06-09T21:03:37.843Z,18.46
2018-06-09T21:06:07.068Z,18.35
2018-06-09T21:08:36.260Z,18.31
2018-06-09T21:11:05.487Z,18.29
2018-06-09T21:13:34.729Z,18.25
2018-06-09T21:16:03.974Z,18.31
2018-06-09T21:18:33.170Z,18.31
2018-06-09T21:21:02.400Z,18.32
2018-06-09T21:23:31.605Z,18.33
2018-06-09T21:26:00.815Z,18.74
2018-06-09T21:28:34.099Z,18.67
2018-06-09T21:31:08.595Z,18.44
2018-06-09T21:33:59.922Z,18.26
2018-06-09T21:36:30.244Z,18.14
2018-06-09T21:39:00.343Z,18.07
2018-06-09T21:41:35.331Z,18.16
2018-06-09T21:44:09.665Z,18.29
2018-06-09T21:46:44.870Z,18.37
2018-06-09T21:49:14.379Z,18.36
2018-06-09T21:51:43.604Z,18.00
2018-06-09T21:54:13.063Z,17.77
2018-06-09T21:56:42.304Z,18.11
2018-06-09T21:59:11.595Z,18.03
2018-06-09T22:01:40.837Z,17.86
2018-06-09T22:04:10.047Z,17.74
2018-06-09T22:06:39.274Z,17.85
2018-06-09T22:09:08.481Z,17.80
2018-06-09T22:11:37.711Z,17.82
2018-06-09T22:14:07.024Z,17.88
2018-06-09T22:16:36.240Z,17.95
2018-06-09T22:19:05.447Z,17.79
2018-06-09T22:21:34.656Z,18.06
2018-06-09T22:24:03.863Z,18.03
2018-06-09T22:26:33.101Z,17.84
2018-06-09T22:29:02.317Z,17.77
2018-06-09T22:31:31.546Z,17.74
2018-06-09T22:34:00.752Z,17.79
2018-06-09T22:36:29.963Z,17.62
2018-06-09T22:38:59.171Z,17.40
2018-06-09T22:41:28.377Z,17.40
2018-06-09T22:43:57.856Z,17.29
2018-06-09T22:46:27.073Z,17.27
2018-06-09T22:48:56.294Z,17.22
2018-06-09T22:51:25.527Z,17.22
2018-06-09T22:53:54.748Z,17.19
2018-06-09T22:56:24.078Z,17.24
2018-06-09T22:58:53.366Z,17.24
2018-06-09T23:01:22.603Z,17.29
2018-06-09T23:03:51.830Z,17.18
2018-06-09T23:06:21.055Z,17.10
2018-06-09T23:08:50.263Z,17.15
2018-06-09T23:11:19.494Z,17.04
2018-06-09T23:14:20.070Z,17.41
2018-06-09T23:16:50.164Z,17.53
2018-06-09T23:19:19.398Z,17.42
2018-06-09T23:21:48.627Z,17.61
2018-06-09T23:24:17.926Z,17.61
2018-06-09T23:26:47.160Z,17.58
2018-06-09T23:29:16.389Z,17.56
2018-06-09T23:31:45.634Z,17.38
2018-06-09T23:34:14.927Z,17.25
2018-06-09T23:36:44.178Z,17.17
2018-06-09T23:39:13.410Z,17.13
2018-06-09T23:41:42.617Z,17.08
2018-06-09T23:44:11.841Z,17.14
2018-06-09T23:46:41.083Z,17.52
2018-06-09T23:49:10.362Z,17.45
2018-06-09T23:51:39.614Z,16.97
2018-06-09T23:54:08.859Z,16.87
2018-06-09T23:56:38.175Z,16.80
2018-06-09T23:59:07.392Z,16.78
